sensor_id;sensor_type;location;lat;lon;timestamp;pressure;altitude;pressure_sealevel;temperature;humidity
61740;BME280;47645;45.288;12.038;2024-03-02T00:00:59;1006.7149949001912;;;10.7583984375;100
61740;BME280;47645;45.288;12.038;2024-03-02T00:11:00;1006.6660759624117;;;10.809375;100
61740;BME280;47645;45.288;12.038;2024-03-02T00:21:00;1006.7097707906786;;;10.8654296875;100
61740;BME280;47645;45.288;12.038;2024-03-02T00:31:03;1006.7901686594018;;;10.9009765625;100
61740;BME280;47645;45.288;12.038;2024-03-02T00:41:05;1006.7986183397423;;;10.855078125;100
61740;BME280;47645;45.288;12.038;2024-03-02T00:51:04;1006.9630943428441;;;10.707421875;100
61740;BME280;47645;45.288;12.038;2024-03-02T01:01:03;1006.9804494480757;;;10.7125;100
61740;BME280;47645;45.288;12.038;2024-03-02T01:11:04;1006.9634357516195;;;10.7583984375;100
61740;BME280;47645;45.288;12.038;2024-03-02T01:21:04;1006.9411034148648;;;10.6970703125;100
61740;BME280;47645;45.288;12.038;2024-03-02T01:31:04;1006.9997297964891;;;10.6513671875;100
61740;BME280;47645;45.288;12.038;2024-03-02T01:41:05;1006.976368655489;;;10.503515625;100
61740;BME280;47645;45.288;12.038;2024-03-02T01:51:07;1006.951464318417;;;10.600390625;100
61740;BME280;47645;45.288;12.038;2024-03-02T02:01:07;1006.9460617156224;;;10.416796875;100
61740;BME280;47645;45.288;12.038;2024-03-02T02:11:07;1006.974607853971;;;10.3759765625;100
61740;BME280;47645;45.288;12.038;2024-03-02T02:21:08;1007.0234743522678;;;10.202734375;100
61740;BME280;47645;45.288;12.038;2024-03-02T02:31:08;1006.9177726562984;;;10.1568359375;100
61740;BME280;47645;45.288;12.038;2024-03-02T02:41:09;1006.8315887635036;;;10.1517578125;100
61740;BME280;47645;45.288;12.038;2024-03-02T02:51:09;1006.8290092668939;;;9.99375;100
61740;BME280;47645;45.288;12.038;2024-03-02T03:01:10;1006.8079227266129;;;10.0345703125;100
61740;BME280;47645;45.288;12.038;2024-03-02T03:11:11;1006.8630020994584;;;10.065234375;100
61740;BME280;47645;45.288;12.038;2024-03-02T03:21:11;1006.9614645463157;;;10.065234375;100
61740;BME280;47645;45.288;12.038;2024-03-02T03:31:12;1006.9252226820586;;;10.1365234375;100
61740;BME280;47645;45.288;12.038;2024-03-02T03:41:13;1006.9118779670385;;;10.0703125;100
61740;BME280;47645;45.288;12.038;2024-03-02T03:51:13;1006.8759324070066;;;10.0498046875;100
61740;BME280;47645;45.288;12.038;2024-03-02T04:01:14;1006.8715484105792;;;10.0244140625;100
61740;BME280;47645;45.288;12.038;2024-03-02T04:11:15;1006.9373505388546;;;10.065234375;100
61740;BME280;47645;45.288;12.038;2024-03-02T04:21:15;1006.9792711820069;;;10.162109375;100
61740;BME280;47645;45.288;12.038;2024-03-02T04:31:16;1006.9868949713177;;;10.192578125;100
61740;BME280;47645;45.288;12.038;2024-03-02T04:41:17;1007.0993192675045;;;10.3607421875;100
61740;BME280;47645;45.288;12.038;2024-03-02T04:51:17;1007.1864913721049;;;10.2232421875;100
61740;BME280;47645;45.288;12.038;2024-03-02T05:01:18;1007.2468209567202;;;10.3505859375;100
61740;BME280;47645;45.288;12.038;2024-03-02T05:12:35;1007.3013528509728;;;10.3251953125;100
61740;BME280;47645;45.288;12.038;2024-03-02T05:21:19;1007.4074289994792;;;10.52890625;100
61740;BME280;47645;45.288;12.038;2024-03-02T05:31:20;1007.51867247458;;;10.289453125;100
61740;BME280;47645;45.288;12.038;2024-03-02T05:41:21;1007.5533494080528;;;10.2638671875;100
61740;BME280;47645;45.288;12.038;2024-03-02T05:51:21;1007.6057343874863;;;10.2638671875;100
61740;BME280;47645;45.288;12.038;2024-03-02T06:01:28;1007.6723760630842;;;10.1671875;100
61740;BME280;47645;45.288;12.038;2024-03-02T06:11:22;1007.7941031667903;;;10.065234375;100
61740;BME280;47645;45.288;12.038;2024-03-02T06:21:23;1007.8282240334827;;;10.1212890625;100
61740;BME280;47645;45.288;12.038;2024-03-02T06:31:24;1007.8548083028809;;;10.3658203125;100
61740;BME280;47645;45.288;12.038;2024-03-02T06:41:25;1007.9188729211014;;;10.5443359375;100
61740;BME280;47645;45.288;12.038;2024-03-02T06:51:25;1008.0460766944718;;;10.533984375;100
61740;BME280;47645;45.288;12.038;2024-03-02T07:01:26;1008.1310252471619;;;10.8041015625;100
61740;BME280;47645;45.288;12.038;2024-03-02T07:11:26;1008.1403234602046;;;11.2271484375;100
61740;BME280;47645;45.288;12.038;2024-03-02T07:21:27;1008.2567249228817;;;11.456640625;100
61740;BME280;47645;45.288;12.038;2024-03-02T07:31:27;1008.4041329373143;;;11.5482421875;100
61740;BME280;47645;45.288;12.038;2024-03-02T07:41:28;1008.4913653639009;;;11.77265625;100
61740;BME280;47645;45.288;12.038;2024-03-02T07:51:29;1008.5964759549539;;;11.8541015625;100
61740;BME280;47645;45.288;12.038;2024-03-02T08:01:32;1008.5664676413825;;;12.0833984375;100
61740;BME280;47645;45.288;12.038;2024-03-02T08:11:31;1008.6574252140312;;;12.3638671875;100
61740;BME280;47645;45.288;12.038;2024-03-02T08:21:32;1008.8276374938318;;;12.3740234375;100
61740;BME280;47645;45.288;12.038;2024-03-02T08:31:32;1008.9265013705292;;;12.3689453125;100
61740;BME280;47645;45.288;12.038;2024-03-02T08:41:33;1008.9665684093737;;;12.66953125;100
61740;BME280;47645;45.288;12.038;2024-03-02T08:51:33;1008.9975354068305;;;12.985546875;100
61740;BME280;47645;45.288;12.038;2024-03-02T09:01:34;1009.0522700509867;;;12.7255859375;100
61740;BME280;47645;45.288;12.038;2024-03-02T09:11:35;1009.0992906872921;;;12.5166015625;100
61740;BME280;47645;45.288;12.038;2024-03-02T09:21:36;1009.2435181702714;;;12.537109375;100
61740;BME280;47645;45.288;12.038;2024-03-02T09:31:39;1009.2496585319664;;;12.4861328125;100
61740;BME280;47645;45.288;12.038;2024-03-02T09:41:38;1009.2028943219406;;;12.64921875;100
61740;BME280;47645;45.288;12.038;2024-03-02T09:51:38;1009.2508849285883;;;12.460546875;100
61740;BME280;47645;45.288;12.038;2024-03-02T10:01:39;1009.313444806121;;;12.55234375;100
61740;BME280;47645;45.288;12.038;2024-03-02T10:11:39;1009.3376069979569;;;12.62890625;100
61740;BME280;47645;45.288;12.038;2024-03-02T10:21:40;1009.4043189083008;;;12.547265625;100
61740;BME280;47645;45.288;12.038;2024-03-02T10:31:42;1009.4915509805029;;;12.7306640625;100
61740;BME280;47645;45.288;12.038;2024-03-02T10:41:42;1009.4594918871505;;;12.955078125;100
61740;BME280;47645;45.288;12.038;2024-03-02T10:51:42;1009.5625852500744;;;12.8173828125;100
61740;BME280;47645;45.288;12.038;2024-03-02T11:01:43;1009.5016673629949;;;13.0875;100
61740;BME280;47645;45.288;12.038;2024-03-02T11:11:45;1009.4447446086305;;;13.0671875;100
61740;BME280;47645;45.288;12.038;2024-03-02T11:21:45;1009.3858011822787;;;13.2658203125;100
61740;BME280;47645;45.288;12.038;2024-03-02T11:31:58;1009.2207196945893;;;12.8734375;100
61740;BME280;47645;45.288;12.038;2024-03-02T11:41:46;1009.1515169487137;;;13.2302734375;100
61740;BME280;47645;45.288;12.038;2024-03-02T11:52:00;1008.9749897048673;;;13.286328125;100
61740;BME280;47645;45.288;12.038;2024-03-02T12:01:49;1008.9446288989102;;;13.5361328125;100
61740;BME280;47645;45.288;12.038;2024-03-02T12:12:01;1009.0250137316186;;;13.3271484375;100
61740;BME280;47645;45.288;12.038;2024-03-02T12:21:49;1008.9344652779678;;;13.6888671875;100
61740;BME280;47645;45.288;12.038;2024-03-02T12:31:51;1008.8564894814846;;;13.6634765625;100
61740;BME280;47645;45.288;12.038;2024-03-02T12:41:51;1008.7889429802219;;;13.617578125;100
61740;BME280;47645;45.288;12.038;2024-03-02T12:51:54;1008.8134674713606;;;13.709375;100
61740;BME280;47645;45.288;12.038;2024-03-02T13:01:52;1008.7859849322673;;;13.744921875;100
61740;BME280;47645;45.288;12.038;2024-03-02T13:11:54;1008.7767021192033;;;13.587109375;100
61740;BME280;47645;45.288;12.038;2024-03-02T13:21:53;1008.6379931089399;;;13.9234375;100
61740;BME280;47645;45.288;12.038;2024-03-02T13:31:54;1008.5354470745494;;;14.2802734375;100
61740;BME280;47645;45.288;12.038;2024-03-02T13:42:04;1008.6670128821372;;;14.229296875;100
61740;BME280;47645;45.288;12.038;2024-03-02T13:51:56;1008.6199925113026;;;14.2138671875;100
61740;BME280;47645;45.288;12.038;2024-03-02T14:01:56;1008.5775591097326;;;14.78984375;100
61740;BME280;47645;45.288;12.038;2024-03-02T14:11:57;1008.5758169734089;;;14.55546875;100
61740;BME280;47645;45.288;12.038;2024-03-02T14:21:58;1008.517782531833;;;14.7439453125;100
61740;BME280;47645;45.288;12.038;2024-03-02T14:31:59;1008.4907075644691;;;14.9580078125;100
61740;BME280;47645;45.288;12.038;2024-03-02T14:42:00;1008.5390642392068;;;14.9326171875;100
61740;BME280;47645;45.288;12.038;2024-03-02T14:52:00;1008.5247983141873;;;13.938671875;100
61740;BME280;47645;45.288;12.038;2024-03-02T15:02:01;1008.5729786279221;;;14.035546875;100
61740;BME280;47645;45.288;12.038;2024-03-02T15:12:02;1008.5797271248418;;;13.9896484375;100
61740;BME280;47645;45.288;12.038;2024-03-02T15:22:03;1008.5623647778557;;;14.2189453125;100
61740;BME280;47645;45.288;12.038;2024-03-02T15:32:05;1008.5628921631353;;;14.0814453125;100
61740;BME280;47645;45.288;12.038;2024-03-02T15:42:06;1008.6531847255898;;;13.83671875;100
61740;BME280;47645;45.288;12.038;2024-03-02T15:52:05;1008.6349583693353;;;13.8826171875;100
61740;BME280;47645;45.288;12.038;2024-03-02T16:02:05;1008.6664824822916;;;13.9591796875;100
61740;BME280;47645;45.288;12.038;2024-03-02T16:12:06;1008.8078552239568;;;13.8826171875;100
61740;BME280;47645;45.288;12.038;2024-03-02T16:22:09;1008.8067072117882;;;13.62265625;100
61740;BME280;47645;45.288;12.038;2024-03-02T16:32:08;1008.8289072765685;;;13.510546875;100
61740;BME280;47645;45.288;12.038;2024-03-02T16:42:08;1008.8863158980139;;;13.597265625;100
61740;BME280;47645;45.288;12.038;2024-03-02T16:52:09;1008.9632400154204;;;13.403515625;100
61740;BME280;47645;45.288;12.038;2024-03-02T17:02:11;1008.8084078648935;;;13.3322265625;100
61740;BME280;47645;45.288;12.038;2024-03-02T17:12:11;1008.7001759894412;;;13.169140625;100
61740;BME280;47645;45.288;12.038;2024-03-02T17:22:12;1008.8744887897093;;;12.848046875;100
61740;BME280;47645;45.288;12.038;2024-03-02T17:32:12;1008.8548884058943;;;12.353515625;100
61740;BME280;47645;45.288;12.038;2024-03-02T17:42:13;1008.9044484710632;;;11.8234375;100
61740;BME280;47645;45.288;12.038;2024-03-02T17:52:13;1009.104896770084;;;11.8490234375;100
61740;BME280;47645;45.288;12.038;2024-03-02T18:02:14;1009.3308209700061;;;11.7318359375;100
61740;BME280;47645;45.288;12.038;2024-03-02T18:12:15;1009.4255647327601;;;11.905078125;100
61740;BME280;47645;45.288;12.038;2024-03-02T18:22:15;1009.4814325173443;;;11.8744140625;100
61740;BME280;47645;45.288;12.038;2024-03-02T18:32:17;1009.6362285862301;;;11.8693359375;100
61740;BME280;47645;45.288;12.038;2024-03-02T18:42:19;1009.6324008872979;;;11.81328125;100
61740;BME280;47645;45.288;12.038;2024-03-02T18:52:18;1009.691786452719;;;11.8490234375;100
61740;BME280;47645;45.288;12.038;2024-03-02T19:02:19;1009.6380833970402;;;11.803125;100
61740;BME280;47645;45.288;12.038;2024-03-02T19:12:19;1009.553839293514;;;11.7318359375;100
61740;BME280;47645;45.288;12.038;2024-03-02T19:22:20;1009.5670387192;;;11.79296875;100
61740;BME280;47645;45.288;12.038;2024-03-02T19:32:22;1009.6201759541514;;;11.6859375;100
61740;BME280;47645;45.288;12.038;2024-03-02T19:42:21;1009.6611098940772;;;11.497265625;100
61740;BME280;47645;45.288;12.038;2024-03-02T19:52:22;1009.6706825858666;;;11.5228515625;100
61740;BME280;47645;45.288;12.038;2024-03-02T20:02:27;1009.697775221872;;;11.140625;100
61740;BME280;47645;45.288;12.038;2024-03-02T20:12:23;1009.7481230967616;;;11.26796875;100
61740;BME280;47645;45.288;12.038;2024-03-02T20:22:24;1009.7732341450102;;;11.069140625;100
61740;BME280;47645;45.288;12.038;2024-03-02T20:32:24;1009.604759409717;;;10.921484375;100
61740;BME280;47645;45.288;12.038;2024-03-02T20:42:26;1009.8325951521896;;;10.7685546875;100
61740;BME280;47645;45.288;12.038;2024-03-02T20:52:25;1009.7245537914253;;;10.814453125;100
61740;BME280;47645;45.288;12.038;2024-03-02T21:02:26;1009.7845994282908;;;10.83984375;100
61740;BME280;47645;45.288;12.038;2024-03-02T21:12:26;1009.8199289360944;;;10.51875;100
61740;BME280;47645;45.288;12.038;2024-03-02T21:22:27;1009.9034303051999;;;10.503515625;100
61740;BME280;47645;45.288;12.038;2024-03-02T21:32:28;1009.8808926742761;;;10.737890625;100
61740;BME280;47645;45.288;12.038;2024-03-02T21:42:28;1009.732775242429;;;10.6818359375;100
61740;BME280;47645;45.288;12.038;2024-03-02T21:52:29;1009.7271888281867;;;10.6716796875;100
61740;BME280;47645;45.288;12.038;2024-03-02T22:02:30;1009.7106304515977;;;10.3658203125;100
61740;BME280;47645;45.288;12.038;2024-03-02T22:12:30;1009.6773513736766;;;10.1212890625;100
61740;BME280;47645;45.288;12.038;2024-03-02T22:22:31;1009.6972450822851;;;10.10078125;100
61740;BME280;47645;45.288;12.038;2024-03-02T22:32:31;1009.7699113979877;;;10.1466796875;100
61740;BME280;47645;45.288;12.038;2024-03-02T22:42:32;1009.7881972259624;;;9.99375;100
61740;BME280;47645;45.288;12.038;2024-03-02T22:52:33;1009.9433214804163;;;9.891796875;100
61740;BME280;47645;45.288;12.038;2024-03-02T23:02:33;1009.8593903306943;;;9.8103515625;100
61740;BME280;47645;45.288;12.038;2024-03-02T23:12:34;1009.7950512747392;;;9.9123046875;100
61740;BME280;47645;45.288;12.038;2024-03-02T23:22:34;1009.8008869272448;;;10.0703125;100
61740;BME280;47645;45.288;12.038;2024-03-02T23:32:35;1009.7830705454381;;;9.861328125;100
61740;BME280;47645;45.288;12.038;2024-03-02T23:42:35;1009.7620502305638;;;9.8255859375;100
61740;BME280;47645;45.288;12.038;2024-03-02T23:52:36;1009.7796970558721;;;9.63203125;100
